Wind From: 11-12-2017 12:03 Until: 12-12-2017 06:00 warning for: Wind Level: Orange info button

Power and phone distribution networks may be disrupted for relatively long periods., Roofs and chimneys can be damaged. , Tree branches may break. , Vehicles can be deported. , Traffic may be disrupted, particularly on secondary roads in forest areas. Limit your trips. , Limit your speed in highway driving, especially if you drive a vehicle or hitch sensitive to wind. , Do not go for walks in forests or along the coast., In town, be vigilant against possible falling objects., Do not work on roofs and do not touch any electrical line fallen on the ground., Store or secure sensitive objects to wind or likely to be damaged., Always install power generators outside buildings. 


Meteo18 Weather Cam more information Meteo18 Weather Cam


Thunder radar more information blitzortung!


Rain radar more information rain snow radar


Visit our other weather sites:

Template documentation
and downloads

And another site



Weather Underground History page Text

Daily Summary for January 11, 2017 Units:  Both    English   Metric
« Previous Day
Next Day »
Daily Weekly Monthly Yearly Custom
  High: Low: Average:
Temperature: 48.6 °F /  9.2 °C 38.1 °F /  3.4 °C 42.8 °F /  6 °C
Dew Point: 46.4 °F /  8.0 °C 37.4 °F /  3.0 °C 41.7 °F /  5.4 °C
Humidity: 99 % 85 % 96 %
Wind Speed: 19 mph /  30.6 km/h - 4.6 mph /  7.4 km/h
Wind Gust: 19 mph /  30.6 km/h - -
Wind:- - WSW
Pressure: 30.2 in /  1021.2 hPa 30 in /  1016.1 hPa -
Precipitation: 0.02 in /  0.5 mm    
Historical Graphs
 
 
Tabular Data for January 11, 2017
Time Temperature Dew Point Pressure Wind Wind Speed Wind Gust Humidity Rainfall Rate (Hourly)
00:02 38.8 °F /  3.8 °C 38.1 °F /  3.4 °C 30.1 in /  1017.5 hPa WNW 4 mph /  6.4 km/h 4 mph /  6.4 km/h 97 % 0 in /  0.0 mm
00:07 39 °F /  3.9 °C 38.3 °F /  3.5 °C 30.1 in /  1017.5 hPa NW 2 mph /  3.2 km/h 5 mph /  8.0 km/h 97 % 0 in /  0.0 mm
00:12 39 °F /  3.9 °C 38.3 °F /  3.5 °C 30.1 in /  1017.5 hPa WNW 3 mph /  4.8 km/h 5 mph /  8.0 km/h 97 % 0 in /  0.0 mm
00:17 39 °F /  3.9 °C 38.3 °F /  3.5 °C 30.1 in /  1017.5 hPa WNW 1 mph /  1.6 km/h 5 mph /  8.0 km/h 97 % 0 in /  0.0 mm
00:22 39.2 °F /  4.0 °C 38.5 °F /  3.6 °C 30.1 in /  1017.5 hPa WNW 2 mph /  3.2 km/h 5 mph /  8.0 km/h 97 % 0 in /  0.0 mm
00:32 39.2 °F /  4.0 °C 38.5 °F /  3.6 °C 30.1 in /  1017.5 hPa WNW 3 mph /  4.8 km/h 5 mph /  8.0 km/h 97 % 0 in /  0.0 mm
00:42 39.4 °F /  4.1 °C 38.7 °F /  3.7 °C 30.1 in /  1017.5 hPa WNW 3 mph /  4.8 km/h 6 mph /  9.7 km/h 97 % 0 in /  0.0 mm
00:47 39.4 °F /  4.1 °C 38.7 °F /  3.7 °C 30.1 in /  1017.5 hPa WNW 5 mph /  8.0 km/h 6 mph /  9.7 km/h 97 % 0 in /  0.0 mm
00:52 39.4 °F /  4.1 °C 38.7 °F /  3.7 °C 30.1 in /  1017.8 hPa WNW 3 mph /  4.8 km/h 8 mph /  12.9 km/h 97 % 0 in /  0.0 mm
00:57 39.4 °F /  4.1 °C 38.7 °F /  3.7 °C 30.1 in /  1017.8 hPa WNW 3 mph /  4.8 km/h 8 mph /  12.9 km/h 97 % 0 in /  0.0 mm
01:02 39.4 °F /  4.1 °C 38.7 °F /  3.7 °C 30.1 in /  1017.5 hPa NW 4 mph /  6.4 km/h 8 mph /  12.9 km/h 97 % 0 in /  0.0 mm
01:07 39.2 °F /  4.0 °C 38.1 °F /  3.4 °C 30 in /  1017.2 hPa West 4 mph /  6.4 km/h 8 mph /  12.9 km/h 96 % 0 in /  0.0 mm
01:12 39.2 °F /  4.0 °C 38.1 °F /  3.4 °C 30.1 in /  1017.5 hPa West 3 mph /  4.8 km/h 8 mph /  12.9 km/h 96 % 0 in /  0.0 mm
01:17 39.2 °F /  4.0 °C 38.5 °F /  3.6 °C 30 in /  1017.2 hPa WNW 1 mph /  1.6 km/h 8 mph /  12.9 km/h 97 % 0 in /  0.0 mm
01:22 39.2 °F /  4.0 °C 38.5 °F /  3.6 °C 30.1 in /  1017.5 hPa WNW 3 mph /  4.8 km/h 8 mph /  12.9 km/h 97 % 0 in /  0.0 mm
01:27 39.4 °F /  4.1 °C 38.7 °F /  3.7 °C 30 in /  1017.2 hPa West 3 mph /  4.8 km/h 8 mph /  12.9 km/h 97 % 0 in /  0.0 mm
01:32 39.6 °F /  4.2 °C 38.8 °F /  3.8 °C 30.1 in /  1017.5 hPa NW 3 mph /  4.8 km/h 7 mph /  11.3 km/h 97 % 0 in /  0.0 mm
01:37 39.6 °F /  4.2 °C 38.5 °F /  3.6 °C 30.1 in /  1017.8 hPa West 4 mph /  6.4 km/h 7 mph /  11.3 km/h 96 % 0 in /  0.0 mm
01:42 39.6 °F /  4.2 °C 38.5 °F /  3.6 °C 30.1 in /  1017.8 hPa West 1 mph /  1.6 km/h 7 mph /  11.3 km/h 96 % 0 in /  0.0 mm
01:47 39.6 °F /  4.2 °C 38.5 °F /  3.6 °C 30.1 in /  1017.8 hPa Calm   6 mph /  9.7 km/h 96 % 0 in /  0.0 mm
01:52 39.6 °F /  4.2 °C 38.5 °F /  3.6 °C 30.1 in /  1017.8 hPa Calm   4 mph /  6.4 km/h 96 % 0 in /  0.0 mm
01:57 39 °F /  3.9 °C 37.9 °F /  3.3 °C 30.1 in /  1017.8 hPa Calm   4 mph /  6.4 km/h 96 % 0 in /  0.0 mm
02:02 38.8 °F /  3.8 °C 37.8 °F /  3.2 °C 30.1 in /  1017.8 hPa SE 1 mph /  1.6 km/h 1 mph /  1.6 km/h 96 % 0 in /  0.0 mm
02:07 38.8 °F /  3.8 °C 37.8 °F /  3.2 °C 30.1 in /  1017.8 hPa Calm   1 mph /  1.6 km/h 96 % 0 in /  0.0 mm
02:12 38.8 °F /  3.8 °C 37.8 °F /  3.2 °C 30.1 in /  1017.8 hPa Calm   1 mph /  1.6 km/h 96 % 0 in /  0.0 mm
02:17 39 °F /  3.9 °C 38.3 °F /  3.5 °C 30.1 in /  1017.5 hPa Calm   1 mph /  1.6 km/h 97 % 0 in /  0.0 mm
02:22 39 °F /  3.9 °C 38.3 °F /  3.5 °C 30.1 in /  1017.8 hPa Calm   1 mph /  1.6 km/h 97 % 0 in /  0.0 mm
02:27 39 °F /  3.9 °C 38.3 °F /  3.5 °C 30.1 in /  1017.8 hPa WNW 2 mph /  3.2 km/h 2 mph /  3.2 km/h 97 % 0 in /  0.0 mm
02:32 39 °F /  3.9 °C 37.9 °F /  3.3 °C 30.1 in /  1017.5 hPa WNW 1 mph /  1.6 km/h 2 mph /  3.2 km/h 96 % 0 in /  0.0 mm
02:37 39 °F /  3.9 °C 38.3 °F /  3.5 °C 30.1 in /  1017.8 hPa WNW 1 mph /  1.6 km/h 2 mph /  3.2 km/h 97 % 0 in /  0.0 mm
02:42 39.2 °F /  4.0 °C 38.5 °F /  3.6 °C 30.1 in /  1017.8 hPa WNW 1 mph /  1.6 km/h 4 mph /  6.4 km/h 97 % 0 in /  0.0 mm
02:47 39.4 °F /  4.1 °C 38.3 °F /  3.5 °C 30.1 in /  1018.2 hPa WSW 2 mph /  3.2 km/h 5 mph /  8.0 km/h 96 % 0 in /  0.0 mm
02:52 39.4 °F /  4.1 °C 38.3 °F /  3.5 °C 30.1 in /  1017.8 hPa WSW 1 mph /  1.6 km/h 5 mph /  8.0 km/h 96 % 0 in /  0.0 mm
02:57 39.6 °F /  4.2 °C 38.5 °F /  3.6 °C 30.1 in /  1017.8 hPa West 2 mph /  3.2 km/h 5 mph /  8.0 km/h 96 % 0 in /  0.0 mm
03:02 39.6 °F /  4.2 °C 38.5 °F /  3.6 °C 30.1 in /  1017.8 hPa Calm   5 mph /  8.0 km/h 96 % 0 in /  0.0 mm
03:07 39.6 °F /  4.2 °C 38.5 °F /  3.6 °C 30.1 in /  1017.8 hPa Calm   3 mph /  4.8 km/h 96 % 0 in /  0.0 mm
03:12 39.6 °F /  4.2 °C 38.5 °F /  3.6 °C 30.1 in /  1017.5 hPa WSW 2 mph /  3.2 km/h 3 mph /  4.8 km/h 96 % 0 in /  0.0 mm
03:17 39.6 °F /  4.2 °C 38.5 °F /  3.6 °C 30.1 in /  1017.5 hPa SW 2 mph /  3.2 km/h 2 mph /  3.2 km/h 96 % 0 in /  0.0 mm
03:22 39.4 °F /  4.1 °C 38.1 °F /  3.4 °C 30.1 in /  1017.5 hPa Calm   3 mph /  4.8 km/h 95 % 0 in /  0.0 mm
03:27 38.8 °F /  3.8 °C 37.6 °F /  3.1 °C 30 in /  1017.2 hPa Calm   3 mph /  4.8 km/h 95 % 0 in /  0.0 mm
03:32 38.7 °F /  3.7 °C 37.4 °F /  3.0 °C 30.1 in /  1017.5 hPa Calm   3 mph /  4.8 km/h 95 % 0 in /  0.0 mm
03:37 38.5 °F /  3.6 °C 37.4 °F /  3.0 °C 30.1 in /  1017.5 hPa Calm     96 % 0 in /  0.0 mm
03:42 38.5 °F /  3.6 °C 37.4 °F /  3.0 °C 30.1 in /  1017.5 hPa Calm     96 % 0 in /  0.0 mm
03:47 38.5 °F /  3.6 °C 37.8 °F /  3.2 °C 30.1 in /  1017.5 hPa SSW 1 mph /  1.6 km/h 1 mph /  1.6 km/h 97 % 0 in /  0.0 mm
03:52 38.7 °F /  3.7 °C 37.9 °F /  3.3 °C 30.1 in /  1017.8 hPa SW 1 mph /  1.6 km/h 2 mph /  3.2 km/h 97 % 0 in /  0.0 mm
03:57 38.7 °F /  3.7 °C 37.9 °F /  3.3 °C 30.1 in /  1017.8 hPa Calm   2 mph /  3.2 km/h 97 % 0 in /  0.0 mm
04:02 38.8 °F /  3.8 °C 38.1 °F /  3.4 °C 30.1 in /  1017.8 hPa WSW 2 mph /  3.2 km/h 2 mph /  3.2 km/h 97 % 0 in /  0.0 mm
04:07 39 °F /  3.9 °C 38.3 °F /  3.5 °C 30.1 in /  1017.8 hPa SW 1 mph /  1.6 km/h 3 mph /  4.8 km/h 97 % 0 in /  0.0 mm
04:12 39.2 °F /  4.0 °C 38.5 °F /  3.6 °C 30.1 in /  1017.8 hPa SW 1 mph /  1.6 km/h 3 mph /  4.8 km/h 97 % 0 in /  0.0 mm
04:17 39.4 °F /  4.1 °C 38.7 °F /  3.7 °C 30.1 in /  1017.8 hPa SW 1 mph /  1.6 km/h 4 mph /  6.4 km/h 97 % 0 in /  0.0 mm
04:22 39.4 °F /  4.1 °C 38.7 °F /  3.7 °C 30.1 in /  1017.5 hPa Calm   4 mph /  6.4 km/h 97 % 0 in /  0.0 mm
04:27 39.2 °F /  4.0 °C 38.5 °F /  3.6 °C 30.1 in /  1017.5 hPa Calm   4 mph /  6.4 km/h 97 % 0 in /  0.0 mm
04:32 38.8 °F /  3.8 °C 37.8 °F /  3.2 °C 30 in /  1017.2 hPa Calm   3 mph /  4.8 km/h 96 % 0 in /  0.0 mm
04:37 38.7 °F /  3.7 °C 37.6 °F /  3.1 °C 30 in /  1017.2 hPa SSE 2 mph /  3.2 km/h 3 mph /  4.8 km/h 96 % 0 in /  0.0 mm
04:42 38.5 °F /  3.6 °C 37.4 °F /  3.0 °C 30 in /  1017.2 hPa SSW 2 mph /  3.2 km/h 3 mph /  4.8 km/h 96 % 0 in /  0.0 mm
04:47 38.5 °F /  3.6 °C 37.8 °F /  3.2 °C 30.1 in /  1017.5 hPa SW 4 mph /  6.4 km/h 4 mph /  6.4 km/h 97 % 0 in /  0.0 mm
04:52 38.5 °F /  3.6 °C 37.8 °F /  3.2 °C 30.1 in /  1017.8 hPa SW 3 mph /  4.8 km/h 3 mph /  4.8 km/h 97 % 0 in /  0.0 mm
04:57 38.5 °F /  3.6 °C 37.8 °F /  3.2 °C 30.1 in /  1017.8 hPa SW 2 mph /  3.2 km/h 6 mph /  9.7 km/h 97 % 0 in /  0.0 mm
05:02 38.5 °F /  3.6 °C 37.8 °F /  3.2 °C 30.1 in /  1017.8 hPa SW 3 mph /  4.8 km/h 6 mph /  9.7 km/h 97 % 0 in /  0.0 mm
05:07 38.7 °F /  3.7 °C 37.9 °F /  3.3 °C 30.1 in /  1017.8 hPa West 4 mph /  6.4 km/h 4 mph /  6.4 km/h 97 % 0 in /  0.0 mm
05:12 38.7 °F /  3.7 °C 37.9 °F /  3.3 °C 30.1 in /  1017.5 hPa WSW 2 mph /  3.2 km/h 5 mph /  8.0 km/h 97 % 0 in /  0.0 mm
05:17 38.7 °F /  3.7 °C 37.9 °F /  3.3 °C 30.1 in /  1017.5 hPa West 2 mph /  3.2 km/h 7 mph /  11.3 km/h 97 % 0 in /  0.0 mm
05:22 38.7 °F /  3.7 °C 37.9 °F /  3.3 °C 30.1 in /  1017.8 hPa WSW 2 mph /  3.2 km/h 7 mph /  11.3 km/h 97 % 0 in /  0.0 mm
05:27 38.7 °F /  3.7 °C 37.9 °F /  3.3 °C 30.1 in /  1017.8 hPa WSW 2 mph /  3.2 km/h 7 mph /  11.3 km/h 97 % 0 in /  0.0 mm
05:32 38.7 °F /  3.7 °C 37.9 °F /  3.3 °C 30.1 in /  1017.8 hPa SW 1 mph /  1.6 km/h 7 mph /  11.3 km/h 97 % 0 in /  0.0 mm
05:37 38.7 °F /  3.7 °C 37.9 °F /  3.3 °C 30.1 in /  1017.5 hPa SW 3 mph /  4.8 km/h 5 mph /  8.0 km/h 97 % 0 in /  0.0 mm
05:42 38.7 °F /  3.7 °C 37.9 °F /  3.3 °C 30.1 in /  1017.5 hPa West 5 mph /  8.0 km/h 5 mph /  8.0 km/h 97 % 0 in /  0.0 mm
05:47 38.5 °F /  3.6 °C 37.8 °F /  3.2 °C 30.1 in /  1017.5 hPa WSW 5 mph /  8.0 km/h 6 mph /  9.7 km/h 97 % 0 in /  0.0 mm
05:52 38.5 °F /  3.6 °C 37.8 °F /  3.2 °C 30 in /  1017.2 hPa WSW 5 mph /  8.0 km/h 6 mph /  9.7 km/h 97 % 0 in /  0.0 mm
05:57 38.5 °F /  3.6 °C 37.8 °F /  3.2 °C 30.1 in /  1017.5 hPa West 4 mph /  6.4 km/h 8 mph /  12.9 km/h 97 % 0 in /  0.0 mm
06:02 38.5 °F /  3.6 °C 37.8 °F /  3.2 °C 30 in /  1017.2 hPa WSW 4 mph /  6.4 km/h 8 mph /  12.9 km/h 97 % 0 in /  0.0 mm
06:07 38.5 °F /  3.6 °C 37.9 °F /  3.3 °C 30 in /  1017.2 hPa WSW 3 mph /  4.8 km/h 11 mph /  17.7 km/h 98 % 0 in /  0.0 mm
06:12 38.5 °F /  3.6 °C 37.9 °F /  3.3 °C 30 in /  1017.2 hPa WSW 4 mph /  6.4 km/h 11 mph /  17.7 km/h 98 % 0 in /  0.0 mm
06:17 38.5 °F /  3.6 °C 37.9 °F /  3.3 °C 30 in /  1017.2 hPa SSW 3 mph /  4.8 km/h 11 mph /  17.7 km/h 98 % 0 in /  0.0 mm
06:22 38.3 °F /  3.5 °C 37.8 °F /  3.2 °C 30 in /  1017.2 hPa SW 2 mph /  3.2 km/h 11 mph /  17.7 km/h 98 % 0 in /  0.0 mm
06:32 38.1 °F /  3.4 °C 37.6 °F /  3.1 °C 30 in /  1017.2 hPa SW 3 mph /  4.8 km/h 10 mph /  16.1 km/h 98 % 0 in /  0.0 mm
06:37 38.1 °F /  3.4 °C 37.6 °F /  3.1 °C 30 in /  1017.2 hPa SSW 4 mph /  6.4 km/h 9 mph /  14.5 km/h 98 % 0 in /  0.0 mm
06:42 38.1 °F /  3.4 °C 37.6 °F /  3.1 °C 30.1 in /  1017.5 hPa SW 2 mph /  3.2 km/h 9 mph /  14.5 km/h 98 % 0 in /  0.0 mm
06:47 38.1 °F /  3.4 °C 37.6 °F /  3.1 °C 30 in /  1017.2 hPa South 3 mph /  4.8 km/h 9 mph /  14.5 km/h 98 % 0 in /  0.0 mm
06:52 38.1 °F /  3.4 °C 37.6 °F /  3.1 °C 30.1 in /  1017.5 hPa SW 5 mph /  8.0 km/h 9 mph /  14.5 km/h 98 % 0 in /  0.0 mm
06:57 38.1 °F /  3.4 °C 37.6 °F /  3.1 °C 30.1 in /  1017.5 hPa SW 2 mph /  3.2 km/h 7 mph /  11.3 km/h 98 % 0 in /  0.0 mm
07:02 38.1 °F /  3.4 °C 37.6 °F /  3.1 °C 30.1 in /  1017.5 hPa SW 3 mph /  4.8 km/h 7 mph /  11.3 km/h 98 % 0 in /  0.0 mm
07:12 38.1 °F /  3.4 °C 37.6 °F /  3.1 °C 30.1 in /  1017.8 hPa SW 6 mph /  9.7 km/h 8 mph /  12.9 km/h 98 % 0 in /  0.0 mm
07:17 38.1 °F /  3.4 °C 37.6 °F /  3.1 °C 30.1 in /  1017.8 hPa WSW 4 mph /  6.4 km/h 8 mph /  12.9 km/h 98 % 0 in /  0.0 mm
07:22 38.3 °F /  3.5 °C 37.8 °F /  3.2 °C 30.1 in /  1017.8 hPa SW 3 mph /  4.8 km/h 9 mph /  14.5 km/h 98 % 0 in /  0.0 mm
07:27 38.3 °F /  3.5 °C 37.8 °F /  3.2 °C 30.1 in /  1018.2 hPa SW 4 mph /  6.4 km/h 9 mph /  14.5 km/h 98 % 0 in /  0.0 mm
07:32 38.3 °F /  3.5 °C 37.8 °F /  3.2 °C 30.1 in /  1018.2 hPa WSW 5 mph /  8.0 km/h 9 mph /  14.5 km/h 98 % 0 in /  0.0 mm
07:37 38.5 °F /  3.6 °C 37.9 °F /  3.3 °C 30.1 in /  1018.2 hPa SSW 3 mph /  4.8 km/h 9 mph /  14.5 km/h 98 % 0 in /  0.0 mm
07:42 38.5 °F /  3.6 °C 37.9 °F /  3.3 °C 30.1 in /  1017.8 hPa SW 4 mph /  6.4 km/h 9 mph /  14.5 km/h 98 % 0 in /  0.0 mm
07:47 38.5 °F /  3.6 °C 37.9 °F /  3.3 °C 30.1 in /  1017.8 hPa SW 5 mph /  8.0 km/h 9 mph /  14.5 km/h 98 % 0 in /  0.0 mm
07:52 38.5 °F /  3.6 °C 37.9 °F /  3.3 °C 30.1 in /  1017.8 hPa SSW 7 mph /  11.3 km/h 9 mph /  14.5 km/h 98 % 0 in /  0.0 mm
07:57 38.7 °F /  3.7 °C 38.1 °F /  3.4 °C 30.1 in /  1017.8 hPa SW 4 mph /  6.4 km/h 10 mph /  16.1 km/h 98 % 0 in /  0.0 mm
08:02 38.7 °F /  3.7 °C 38.1 °F /  3.4 °C 30.1 in /  1017.8 hPa WSW 5 mph /  8.0 km/h 10 mph /  16.1 km/h 98 % 0 in /  0.0 mm
08:07 38.7 °F /  3.7 °C 38.1 °F /  3.4 °C 30.1 in /  1017.8 hPa SW 6 mph /  9.7 km/h 9 mph /  14.5 km/h 98 % 0 in /  0.0 mm
08:12 38.7 °F /  3.7 °C 38.1 °F /  3.4 °C 30.1 in /  1017.8 hPa SW 5 mph /  8.0 km/h 9 mph /  14.5 km/h 98 % 0 in /  0.0 mm
08:17 38.8 °F /  3.8 °C 38.3 °F /  3.5 °C 30.1 in /  1017.8 hPa SSW 3 mph /  4.8 km/h 11 mph /  17.7 km/h 98 % 0 in /  0.0 mm
08:22 38.8 °F /  3.8 °C 38.3 °F /  3.5 °C 30.1 in /  1017.8 hPa SW 7 mph /  11.3 km/h 11 mph /  17.7 km/h 98 % 0 in /  0.0 mm
08:32 38.8 °F /  3.8 °C 38.3 °F /  3.5 °C 30.1 in /  1017.8 hPa SW 7 mph /  11.3 km/h 12 mph /  19.3 km/h 98 % 0 in /  0.0 mm
08:37 39 °F /  3.9 °C 38.5 °F /  3.6 °C 30.1 in /  1017.8 hPa SW 6 mph /  9.7 km/h 11 mph /  17.7 km/h 98 % 0 in /  0.0 mm
08:42 39 °F /  3.9 °C 38.5 °F /  3.6 °C 30.1 in /  1017.8 hPa SW 6 mph /  9.7 km/h 11 mph /  17.7 km/h 98 % 0 in /  0.0 mm
08:47 39 °F /  3.9 °C 38.5 °F /  3.6 °C 30.1 in /  1017.8 hPa SSW 3 mph /  4.8 km/h 10 mph /  16.1 km/h 98 % 0 in /  0.0 mm
08:52 39.2 °F /  4.0 °C 38.7 °F /  3.7 °C 30.1 in /  1017.8 hPa SW 4 mph /  6.4 km/h 10 mph /  16.1 km/h 98 % 0 in /  0.0 mm
08:57 39.2 °F /  4.0 °C 38.7 °F /  3.7 °C 30.1 in /  1017.8 hPa SW 2 mph /  3.2 km/h 8 mph /  12.9 km/h 98 % 0 in /  0.0 mm
09:02 39.4 °F /  4.1 °C 38.8 °F /  3.8 °C 30.1 in /  1017.8 hPa South 6 mph /  9.7 km/h 8 mph /  12.9 km/h 98 % 0 in /  0.0 mm
09:07 39.6 °F /  4.2 °C 39 °F /  3.9 °C 30.1 in /  1017.8 hPa SW 10 mph /  16.1 km/h 10 mph /  16.1 km/h 98 % 0 in /  0.0 mm
09:12 39.7 °F /  4.3 °C 39.2 °F /  4.0 °C 30.1 in /  1017.8 hPa SSW 4 mph /  6.4 km/h 9 mph /  14.5 km/h 98 % 0.01 in /  0.3 mm
09:17 39.7 °F /  4.3 °C 39.2 °F /  4.0 °C 30.1 in /  1017.8 hPa SSW 7 mph /  11.3 km/h 11 mph /  17.7 km/h 98 % 0.01 in /  0.3 mm
09:22 39.9 °F /  4.4 °C 39.4 °F /  4.1 °C 30.1 in /  1017.8 hPa SSW 4 mph /  6.4 km/h 11 mph /  17.7 km/h 98 % 0.01 in /  0.3 mm
09:32 39.9 °F /  4.4 °C 39.4 °F /  4.1 °C 30.1 in /  1017.8 hPa SW 7 mph /  11.3 km/h 10 mph /  16.1 km/h 98 % 0.01 in /  0.3 mm
09:37 39.9 °F /  4.4 °C 39.4 °F /  4.1 °C 30.1 in /  1017.8 hPa South 6 mph /  9.7 km/h 9 mph /  14.5 km/h 98 % 0.01 in /  0.3 mm
09:42 39.9 °F /  4.4 °C 39.4 °F /  4.1 °C 30.1 in /  1017.5 hPa South 5 mph /  8.0 km/h 9 mph /  14.5 km/h 98 % 0.01 in /  0.3 mm
09:47 40.1 °F /  4.5 °C 39.6 °F /  4.2 °C 30.1 in /  1017.8 hPa SW 7 mph /  11.3 km/h 9 mph /  14.5 km/h 98 % 0.01 in /  0.3 mm
09:52 40.3 °F /  4.6 °C 39.7 °F /  4.3 °C 30.1 in /  1017.8 hPa SSW 7 mph /  11.3 km/h 9 mph /  14.5 km/h 98 % 0.01 in /  0.3 mm
10:02 40.5 °F /  4.7 °C 39.9 °F /  4.4 °C 30.1 in /  1017.8 hPa SW 4 mph /  6.4 km/h 11 mph /  17.7 km/h 98 % 0.01 in /  0.3 mm
10:07 40.5 °F /  4.7 °C 39.9 °F /  4.4 °C 30.1 in /  1017.8 hPa SW 13 mph /  20.9 km/h 13 mph /  20.9 km/h 98 % 0.01 in /  0.3 mm
10:12 40.6 °F /  4.8 °C 40.1 °F /  4.5 °C 30.1 in /  1017.8 hPa SSW 5 mph /  8.0 km/h 13 mph /  20.9 km/h 98 % 0 in /  0.0 mm
10:17 40.6 °F /  4.8 °C 40.1 °F /  4.5 °C 30.1 in /  1017.8 hPa SSW 4 mph /  6.4 km/h 13 mph /  20.9 km/h 98 % 0 in /  0.0 mm
10:22 40.6 °F /  4.8 °C 40.1 °F /  4.5 °C 30.1 in /  1017.8 hPa SSW 7 mph /  11.3 km/h 13 mph /  20.9 km/h 98 % 0 in /  0.0 mm
10:27 40.6 °F /  4.8 °C 40.1 °F /  4.5 °C 30.1 in /  1017.8 hPa SW 7 mph /  11.3 km/h 12 mph /  19.3 km/h 98 % 0 in /  0.0 mm
10:32 40.6 °F /  4.8 °C 40.1 °F /  4.5 °C 30.1 in /  1017.5 hPa SW 4 mph /  6.4 km/h 11 mph /  17.7 km/h 98 % 0 in /  0.0 mm
10:37 40.8 °F /  4.9 °C 40.3 °F /  4.6 °C 30.1 in /  1017.5 hPa SW 8 mph /  12.9 km/h 11 mph /  17.7 km/h 98 % 0 in /  0.0 mm
10:42 41.2 °F /  5.1 °C 40.6 °F /  4.8 °C 30.1 in /  1017.5 hPa SW 9 mph /  14.5 km/h 15 mph /  24.1 km/h 98 % 0 in /  0.0 mm
10:47 41.2 °F /  5.1 °C 40.6 °F /  4.8 °C 30.1 in /  1017.8 hPa SW 11 mph /  17.7 km/h 15 mph /  24.1 km/h 98 % 0 in /  0.0 mm
10:52 41.4 °F /  5.2 °C 40.8 °F /  4.9 °C 30.1 in /  1017.8 hPa SW 7 mph /  11.3 km/h 15 mph /  24.1 km/h 98 % 0 in /  0.0 mm
10:57 41.4 °F /  5.2 °C 40.8 °F /  4.9 °C 30.1 in /  1017.8 hPa WSW 10 mph /  16.1 km/h 15 mph /  24.1 km/h 98 % 0 in /  0.0 mm
11:07 41.5 °F /  5.3 °C 41 °F /  5.0 °C 30.1 in /  1017.8 hPa SW 6 mph /  9.7 km/h 13 mph /  20.9 km/h 98 % 0 in /  0.0 mm
11:12 41.5 °F /  5.3 °C 41 °F /  5.0 °C 30.1 in /  1017.8 hPa WSW 7 mph /  11.3 km/h 13 mph /  20.9 km/h 98 % 0 in /  0.0 mm
11:22 41.7 °F /  5.4 °C 41.2 °F /  5.1 °C 30.1 in /  1017.8 hPa SW 11 mph /  17.7 km/h 13 mph /  20.9 km/h 98 % 0 in /  0.0 mm
11:27 42.1 °F /  5.6 °C 41.5 °F /  5.3 °C 30.1 in /  1017.8 hPa SW 13 mph /  20.9 km/h 13 mph /  20.9 km/h 98 % 0 in /  0.0 mm
11:32 42.3 °F /  5.7 °C 41.7 °F /  5.4 °C 30.1 in /  1017.8 hPa NW 8 mph /  12.9 km/h 14 mph /  22.5 km/h 98 % 0 in /  0.0 mm
11:37 42.4 °F /  5.8 °C 41.9 °F /  5.5 °C 30.1 in /  1017.8 hPa West 11 mph /  17.7 km/h 15 mph /  24.1 km/h 98 % 0 in /  0.0 mm
11:42 42.4 °F /  5.8 °C 42.3 °F /  5.7 °C 30.1 in /  1017.8 hPa SW 13 mph /  20.9 km/h 15 mph /  24.1 km/h 99 % 0 in /  0.0 mm
11:47 42.6 °F /  5.9 °C 42.1 °F /  5.6 °C 30.1 in /  1017.8 hPa West 11 mph /  17.7 km/h 15 mph /  24.1 km/h 98 % 0 in /  0.0 mm
11:52 42.6 °F /  5.9 °C 42.1 °F /  5.6 °C 30.1 in /  1017.5 hPa SSW 9 mph /  14.5 km/h 19 mph /  30.6 km/h 98 % 0 in /  0.0 mm
11:57 42.8 °F /  6.0 °C 42.6 °F /  5.9 °C 30.1 in /  1017.5 hPa WSW 11 mph /  17.7 km/h 19 mph /  30.6 km/h 99 % 0.01 in /  0.3 mm
12:02 42.8 °F /  6.0 °C 42.6 °F /  5.9 °C 30.1 in /  1017.5 hPa SW 10 mph /  16.1 km/h 16 mph /  25.7 km/h 99 % 0.01 in /  0.3 mm
12:07 43 °F /  6.1 °C 42.4 °F /  5.8 °C 30 in /  1017.2 hPa SW 6 mph /  9.7 km/h 16 mph /  25.7 km/h 98 % 0.01 in /  0.3 mm
12:12 43 °F /  6.1 °C 42.4 °F /  5.8 °C 30 in /  1017.2 hPa WSW 5 mph /  8.0 km/h 16 mph /  25.7 km/h 98 % 0.01 in /  0.3 mm
12:17 43.2 °F /  6.2 °C 43 °F /  6.1 °C 30 in /  1017.2 hPa WSW 6 mph /  9.7 km/h 14 mph /  22.5 km/h 99 % 0.01 in /  0.3 mm
12:22 43.3 °F /  6.3 °C 42.8 °F /  6.0 °C 30 in /  1017.2 hPa SW 10 mph /  16.1 km/h 14 mph /  22.5 km/h 98 % 0.01 in /  0.3 mm
12:27 43.3 °F /  6.3 °C 43.2 °F /  6.2 °C 30 in /  1017.2 hPa SW 4 mph /  6.4 km/h 14 mph /  22.5 km/h 99 % 0.01 in /  0.3 mm
12:32 43.5 °F /  6.4 °C 43.3 °F /  6.3 °C 30 in /  1017.2 hPa WSW 6 mph /  9.7 km/h 14 mph /  22.5 km/h 99 % 0.01 in /  0.3 mm
12:37 43.5 °F /  6.4 °C 43.3 °F /  6.3 °C 30 in /  1016.8 hPa SSW 6 mph /  9.7 km/h 16 mph /  25.7 km/h 99 % 0.01 in /  0.3 mm
12:42 43.7 °F /  6.5 °C 43.2 °F /  6.2 °C 30 in /  1016.8 hPa WSW 13 mph /  20.9 km/h 16 mph /  25.7 km/h 98 % 0.01 in /  0.3 mm
12:47 43.7 °F /  6.5 °C 43.2 °F /  6.2 °C 30 in /  1016.8 hPa SW 6 mph /  9.7 km/h 17 mph /  27.4 km/h 98 % 0.01 in /  0.3 mm
12:52 43.9 °F /  6.6 °C 43.3 °F /  6.3 °C 30 in /  1016.8 hPa WSW 7 mph /  11.3 km/h 17 mph /  27.4 km/h 98 % 0 in /  0.0 mm
12:57 43.9 °F /  6.6 °C 43.3 °F /  6.3 °C 30 in /  1016.8 hPa SW 9 mph /  14.5 km/h 17 mph /  27.4 km/h 98 % 0 in /  0.0 mm
13:02 44.1 °F /  6.7 °C 43.5 °F /  6.4 °C 30 in /  1016.5 hPa WSW 13 mph /  20.9 km/h 17 mph /  27.4 km/h 98 % 0 in /  0.0 mm
13:07 44.1 °F /  6.7 °C 43.5 °F /  6.4 °C 30 in /  1016.5 hPa SW 13 mph /  20.9 km/h 19 mph /  30.6 km/h 98 % 0 in /  0.0 mm
13:12 44.2 °F /  6.8 °C 43.7 °F /  6.5 °C 30 in /  1016.5 hPa WSW 11 mph /  17.7 km/h 19 mph /  30.6 km/h 98 % 0 in /  0.0 mm
13:17 44.2 °F /  6.8 °C 43.7 °F /  6.5 °C 30 in /  1016.5 hPa SW 11 mph /  17.7 km/h 19 mph /  30.6 km/h 98 % 0 in /  0.0 mm
13:22 44.2 °F /  6.8 °C 43.7 °F /  6.5 °C 30 in /  1016.5 hPa SSW 8 mph /  12.9 km/h 16 mph /  25.7 km/h 98 % 0 in /  0.0 mm
13:27 44.2 °F /  6.8 °C 43.7 °F /  6.5 °C 30 in /  1016.5 hPa SW 19 mph /  30.6 km/h 19 mph /  30.6 km/h 98 % 0 in /  0.0 mm
13:32 44.2 °F /  6.8 °C 43.7 °F /  6.5 °C 30 in /  1016.5 hPa WSW 6 mph /  9.7 km/h 19 mph /  30.6 km/h 98 % 0 in /  0.0 mm
13:37 44.4 °F /  6.9 °C 43.9 °F /  6.6 °C 30 in /  1016.5 hPa SW 5 mph /  8.0 km/h 19 mph /  30.6 km/h 98 % 0 in /  0.0 mm
13:42 44.4 °F /  6.9 °C 43.9 °F /  6.6 °C 30 in /  1016.5 hPa SW 6 mph /  9.7 km/h 19 mph /  30.6 km/h 98 % 0 in /  0.0 mm
13:47 44.4 °F /  6.9 °C 43.9 °F /  6.6 °C 30 in /  1016.5 hPa SW 5 mph /  8.0 km/h 17 mph /  27.4 km/h 98 % 0 in /  0.0 mm
13:52 44.6 °F /  7.0 °C 44.1 °F /  6.7 °C 30 in /  1016.5 hPa SSW 7 mph /  11.3 km/h 14 mph /  22.5 km/h 98 % 0 in /  0.0 mm
13:57 44.6 °F /  7.0 °C 44.1 °F /  6.7 °C 30 in /  1016.1 hPa SW 6 mph /  9.7 km/h 14 mph /  22.5 km/h 98 % 0 in /  0.0 mm
14:02 44.8 °F /  7.1 °C 44.2 °F /  6.8 °C 30 in /  1016.1 hPa SW 6 mph /  9.7 km/h 14 mph /  22.5 km/h 98 % 0 in /  0.0 mm
14:12 44.8 °F /  7.1 °C 44.2 °F /  6.8 °C 30 in /  1016.1 hPa WSW 6 mph /  9.7 km/h 12 mph /  19.3 km/h 98 % 0 in /  0.0 mm
14:17 45 °F /  7.2 °C 44.4 °F /  6.9 °C 30 in /  1016.1 hPa WSW 4 mph /  6.4 km/h 13 mph /  20.9 km/h 98 % 0 in /  0.0 mm
14:22 45 °F /  7.2 °C 44.4 °F /  6.9 °C 30 in /  1016.1 hPa West 5 mph /  8.0 km/h 14 mph /  22.5 km/h 98 % 0 in /  0.0 mm
14:27 45.1 °F /  7.3 °C 44.6 °F /  7.0 °C 30 in /  1016.1 hPa West 6 mph /  9.7 km/h 14 mph /  22.5 km/h 98 % 0 in /  0.0 mm
14:32 45.1 °F /  7.3 °C 44.6 °F /  7.0 °C 30 in /  1016.1 hPa WNW 8 mph /  12.9 km/h 14 mph /  22.5 km/h 98 % 0 in /  0.0 mm
14:37 45.1 °F /  7.3 °C 44.6 °F /  7.0 °C 30 in /  1016.1 hPa West 9 mph /  14.5 km/h 14 mph /  22.5 km/h 98 % 0 in /  0.0 mm
14:42 45.3 °F /  7.4 °C 44.8 °F /  7.1 °C 30 in /  1016.1 hPa SW 7 mph /  11.3 km/h 16 mph /  25.7 km/h 98 % 0 in /  0.0 mm
14:47 45.3 °F /  7.4 °C 44.8 °F /  7.1 °C 30 in /  1016.1 hPa SW 6 mph /  9.7 km/h 16 mph /  25.7 km/h 98 % 0 in /  0.0 mm
14:57 45.5 °F /  7.5 °C 45 °F /  7.2 °C 30 in /  1016.1 hPa SW 10 mph /  16.1 km/h 15 mph /  24.1 km/h 98 % 0 in /  0.0 mm
15:02 45.7 °F /  7.6 °C 45.1 °F /  7.3 °C 30 in /  1016.1 hPa West 10 mph /  16.1 km/h 15 mph /  24.1 km/h 98 % 0 in /  0.0 mm
15:07 45.7 °F /  7.6 °C 45.1 °F /  7.3 °C 30 in /  1016.1 hPa SW 2 mph /  3.2 km/h 14 mph /  22.5 km/h 98 % 0 in /  0.0 mm
15:12 45.9 °F /  7.7 °C 45.3 °F /  7.4 °C 30 in /  1016.1 hPa SW 9 mph /  14.5 km/h 14 mph /  22.5 km/h 98 % 0 in /  0.0 mm
15:17 45.9 °F /  7.7 °C 45.3 °F /  7.4 °C 30 in /  1016.1 hPa SW 7 mph /  11.3 km/h 14 mph /  22.5 km/h 98 % 0 in /  0.0 mm
15:22 45.9 °F /  7.7 °C 45.3 °F /  7.4 °C 30 in /  1016.1 hPa WSW 6 mph /  9.7 km/h 12 mph /  19.3 km/h 98 % 0 in /  0.0 mm
15:32 46 °F /  7.8 °C 45.5 °F /  7.5 °C 30 in /  1016.1 hPa SW 3 mph /  4.8 km/h 12 mph /  19.3 km/h 98 % 0 in /  0.0 mm
15:37 46 °F /  7.8 °C 45.5 °F /  7.5 °C 30 in /  1016.1 hPa WSW 4 mph /  6.4 km/h 12 mph /  19.3 km/h 98 % 0 in /  0.0 mm
15:42 46 °F /  7.8 °C 45.5 °F /  7.5 °C 30 in /  1016.1 hPa WSW 6 mph /  9.7 km/h 12 mph /  19.3 km/h 98 % 0 in /  0.0 mm
15:47 46.2 °F /  7.9 °C 45.7 °F /  7.6 °C 30 in /  1016.5 hPa SW 8 mph /  12.9 km/h 12 mph /  19.3 km/h 98 % 0 in /  0.0 mm
15:52 46.2 °F /  7.9 °C 45.7 °F /  7.6 °C 30 in /  1016.5 hPa WSW 6 mph /  9.7 km/h 13 mph /  20.9 km/h 98 % 0 in /  0.0 mm
15:57 46.2 °F /  7.9 °C 45.7 °F /  7.6 °C 30 in /  1016.5 hPa SW 5 mph /  8.0 km/h 13 mph /  20.9 km/h 98 % 0 in /  0.0 mm
16:02 46.2 °F /  7.9 °C 45.7 °F /  7.6 °C 30 in /  1016.5 hPa West 2 mph /  3.2 km/h 12 mph /  19.3 km/h 98 % 0 in /  0.0 mm
16:07 46.2 °F /  7.9 °C 45.7 °F /  7.6 °C 30 in /  1016.5 hPa SW 4 mph /  6.4 km/h 12 mph /  19.3 km/h 98 % 0 in /  0.0 mm
16:12 46.4 °F /  8.0 °C 45.9 °F /  7.7 °C 30 in /  1016.5 hPa SSW 7 mph /  11.3 km/h 12 mph /  19.3 km/h 98 % 0 in /  0.0 mm
16:17 46.4 °F /  8.0 °C 45.9 °F /  7.7 °C 30 in /  1016.5 hPa WSW 5 mph /  8.0 km/h 12 mph /  19.3 km/h 98 % 0 in /  0.0 mm
16:22 46.4 °F /  8.0 °C 45.9 °F /  7.7 °C 30 in /  1016.1 hPa WSW 4 mph /  6.4 km/h 12 mph /  19.3 km/h 98 % 0 in /  0.0 mm
16:27 46.6 °F /  8.1 °C 46 °F /  7.8 °C 30 in /  1016.5 hPa SW 4 mph /  6.4 km/h 11 mph /  17.7 km/h 98 % 0 in /  0.0 mm
16:32 46.6 °F /  8.1 °C 46 °F /  7.8 °C 30 in /  1016.5 hPa WSW 7 mph /  11.3 km/h 12 mph /  19.3 km/h 98 % 0 in /  0.0 mm
16:37 46.6 °F /  8.1 °C 46 °F /  7.8 °C 30 in /  1016.5 hPa SW 4 mph /  6.4 km/h 12 mph /  19.3 km/h 98 % 0 in /  0.0 mm
16:42 46.6 °F /  8.1 °C 46 °F /  7.8 °C 30 in /  1016.5 hPa SW 7 mph /  11.3 km/h 12 mph /  19.3 km/h 98 % 0 in /  0.0 mm
16:52 46.8 °F /  8.2 °C 46.2 °F /  7.9 °C 30 in /  1016.5 hPa West 5 mph /  8.0 km/h 12 mph /  19.3 km/h 98 % 0 in /  0.0 mm
16:57 46.8 °F /  8.2 °C 46.2 °F /  7.9 °C 30 in /  1016.8 hPa West 4 mph /  6.4 km/h 13 mph /  20.9 km/h 98 % 0 in /  0.0 mm
17:02 46.9 °F /  8.3 °C 46.2 °F /  7.9 °C 30 in /  1016.8 hPa West 4 mph /  6.4 km/h 13 mph /  20.9 km/h 97 % 0 in /  0.0 mm
17:07 46.9 °F /  8.3 °C 46.2 °F /  7.9 °C 30 in /  1017.2 hPa West 8 mph /  12.9 km/h 13 mph /  20.9 km/h 97 % 0 in /  0.0 mm
17:12 46.9 °F /  8.3 °C 46.2 °F /  7.9 °C 30 in /  1017.2 hPa WSW 10 mph /  16.1 km/h 11 mph /  17.7 km/h 97 % 0 in /  0.0 mm
17:17 46.9 °F /  8.3 °C 46.2 °F /  7.9 °C 30 in /  1017.2 hPa West 7 mph /  11.3 km/h 11 mph /  17.7 km/h 97 % 0 in /  0.0 mm
17:22 46.9 °F /  8.3 °C 46.2 °F /  7.9 °C 30 in /  1017.2 hPa West 7 mph /  11.3 km/h 12 mph /  19.3 km/h 97 % 0 in /  0.0 mm
17:27 47.1 °F /  8.4 °C 46.4 °F /  8.0 °C 30 in /  1017.2 hPa West 3 mph /  4.8 km/h 12 mph /  19.3 km/h 97 % 0 in /  0.0 mm
17:32 47.1 °F /  8.4 °C 46.4 °F /  8.0 °C 30 in /  1017.2 hPa West 4 mph /  6.4 km/h 11 mph /  17.7 km/h 97 % 0 in /  0.0 mm
17:37 47.1 °F /  8.4 °C 46.4 °F /  8.0 °C 30 in /  1017.2 hPa WSW 7 mph /  11.3 km/h 11 mph /  17.7 km/h 97 % 0 in /  0.0 mm
17:42 47.3 °F /  8.5 °C 46.2 °F /  7.9 °C 30 in /  1017.2 hPa WSW 7 mph /  11.3 km/h 11 mph /  17.7 km/h 96 % 0 in /  0.0 mm
17:47 47.5 °F /  8.6 °C 46.4 °F /  8.0 °C 30 in /  1017.2 hPa WSW 6 mph /  9.7 km/h 10 mph /  16.1 km/h 96 % 0 in /  0.0 mm
17:52 47.7 °F /  8.7 °C 46.2 °F /  7.9 °C 30 in /  1017.2 hPa WSW 8 mph /  12.9 km/h 12 mph /  19.3 km/h 95 % 0 in /  0.0 mm
18:02 47.8 °F /  8.8 °C 46.2 °F /  7.9 °C 30.1 in /  1017.5 hPa WSW 6 mph /  9.7 km/h 12 mph /  19.3 km/h 94 % 0 in /  0.0 mm
18:07 47.8 °F /  8.8 °C 46.2 °F /  7.9 °C 30.1 in /  1017.5 hPa West 9 mph /  14.5 km/h 11 mph /  17.7 km/h 94 % 0 in /  0.0 mm
18:12 48 °F /  8.9 °C 46.4 °F /  8.0 °C 30.1 in /  1017.8 hPa West 5 mph /  8.0 km/h 11 mph /  17.7 km/h 94 % 0 in /  0.0 mm
18:17 48 °F /  8.9 °C 46.4 °F /  8.0 °C 30.1 in /  1017.8 hPa West 7 mph /  11.3 km/h 11 mph /  17.7 km/h 94 % 0 in /  0.0 mm
18:22 48 °F /  8.9 °C 46.4 °F /  8.0 °C 30.1 in /  1017.8 hPa WSW 4 mph /  6.4 km/h 10 mph /  16.1 km/h 94 % 0 in /  0.0 mm
18:27 48.2 °F /  9.0 °C 46.2 °F /  7.9 °C 30.1 in /  1017.8 hPa West 9 mph /  14.5 km/h 11 mph /  17.7 km/h 93 % 0 in /  0.0 mm
18:32 48.4 °F /  9.1 °C 46.4 °F /  8.0 °C 30.1 in /  1017.8 hPa WSW 7 mph /  11.3 km/h 11 mph /  17.7 km/h 93 % 0 in /  0.0 mm
18:37 48.4 °F /  9.1 °C 46.4 °F /  8.0 °C 30.1 in /  1017.8 hPa West 5 mph /  8.0 km/h 13 mph /  20.9 km/h 93 % 0 in /  0.0 mm
18:42 48.4 °F /  9.1 °C 46.4 °F /  8.0 °C 30.1 in /  1017.8 hPa West 5 mph /  8.0 km/h 13 mph /  20.9 km/h 93 % 0 in /  0.0 mm
18:47 48.4 °F /  9.1 °C 46.2 °F /  7.9 °C 30.1 in /  1017.8 hPa West 7 mph /  11.3 km/h 12 mph /  19.3 km/h 92 % 0 in /  0.0 mm
18:52 48.6 °F /  9.2 °C 46.4 °F /  8.0 °C 30.1 in /  1017.8 hPa WSW 6 mph /  9.7 km/h 10 mph /  16.1 km/h 92 % 0 in /  0.0 mm
18:57 48.4 °F /  9.1 °C 46.2 °F /  7.9 °C 30.1 in /  1017.8 hPa West 7 mph /  11.3 km/h 10 mph /  16.1 km/h 92 % 0 in /  0.0 mm
19:02 48.4 °F /  9.1 °C 46.2 °F /  7.9 °C 30.1 in /  1017.8 hPa WSW 5 mph /  8.0 km/h 10 mph /  16.1 km/h 92 % 0 in /  0.0 mm
19:07 48.4 °F /  9.1 °C 46.2 °F /  7.9 °C 30.1 in /  1018.2 hPa WSW 6 mph /  9.7 km/h 12 mph /  19.3 km/h 92 % 0 in /  0.0 mm
19:12 48.4 °F /  9.1 °C 46.2 °F /  7.9 °C 30.1 in /  1018.2 hPa SW 4 mph /  6.4 km/h 12 mph /  19.3 km/h 92 % 0 in /  0.0 mm
19:17 48 °F /  8.9 °C 46 °F /  7.8 °C 30.1 in /  1018.2 hPa SW 8 mph /  12.9 km/h 12 mph /  19.3 km/h 93 % 0 in /  0.0 mm
19:22 48 °F /  8.9 °C 46 °F /  7.8 °C 30.1 in /  1018.2 hPa West 4 mph /  6.4 km/h 9 mph /  14.5 km/h 93 % 0 in /  0.0 mm
19:27 48 °F /  8.9 °C 46 °F /  7.8 °C 30.1 in /  1018.2 hPa WSW 3 mph /  4.8 km/h 9 mph /  14.5 km/h 93 % 0 in /  0.0 mm
19:32 48 °F /  8.9 °C 46 °F /  7.8 °C 30.1 in /  1018.2 hPa SW 3 mph /  4.8 km/h 9 mph /  14.5 km/h 93 % 0 in /  0.0 mm
19:37 47.8 °F /  8.8 °C 46.2 °F /  7.9 °C 30.1 in /  1018.2 hPa WSW 1 mph /  1.6 km/h 6 mph /  9.7 km/h 94 % 0 in /  0.0 mm
19:42 47.8 °F /  8.8 °C 45.9 °F /  7.7 °C 30.1 in /  1018.2 hPa WSW 3 mph /  4.8 km/h 7 mph /  11.3 km/h 93 % 0 in /  0.0 mm
19:47 47.8 °F /  8.8 °C 45.9 °F /  7.7 °C 30.1 in /  1018.2 hPa SW 4 mph /  6.4 km/h 8 mph /  12.9 km/h 93 % 0 in /  0.0 mm
19:52 47.8 °F /  8.8 °C 45.9 °F /  7.7 °C 30.1 in /  1018.2 hPa Calm   8 mph /  12.9 km/h 93 % 0 in /  0.0 mm
19:57 47.7 °F /  8.7 °C 45.7 °F /  7.6 °C 30.1 in /  1018.2 hPa WSW 3 mph /  4.8 km/h 8 mph /  12.9 km/h 93 % 0 in /  0.0 mm
20:02 47.7 °F /  8.7 °C 45.7 °F /  7.6 °C 30.1 in /  1018.5 hPa SW 1 mph /  1.6 km/h 8 mph /  12.9 km/h 93 % 0 in /  0.0 mm
20:07 47.7 °F /  8.7 °C 46 °F /  7.8 °C 30.1 in /  1018.5 hPa SW 3 mph /  4.8 km/h 4 mph /  6.4 km/h 94 % 0 in /  0.0 mm
20:12 47.7 °F /  8.7 °C 45.7 °F /  7.6 °C 30.1 in /  1018.5 hPa SW 4 mph /  6.4 km/h 6 mph /  9.7 km/h 93 % 0 in /  0.0 mm
20:22 47.5 °F /  8.6 °C 45.5 °F /  7.5 °C 30.1 in /  1018.8 hPa SW 3 mph /  4.8 km/h 6 mph /  9.7 km/h 93 % 0 in /  0.0 mm
20:32 47.3 °F /  8.5 °C 45.3 °F /  7.4 °C 30.1 in /  1018.8 hPa SW 5 mph /  8.0 km/h 6 mph /  9.7 km/h 93 % 0 in /  0.0 mm
20:42 47.3 °F /  8.5 °C 45.3 °F /  7.4 °C 30.1 in /  1019.2 hPa SW 3 mph /  4.8 km/h 8 mph /  12.9 km/h 93 % 0 in /  0.0 mm
20:47 47.3 °F /  8.5 °C 45.3 °F /  7.4 °C 30.1 in /  1019.2 hPa WSW 3 mph /  4.8 km/h 8 mph /  12.9 km/h 93 % 0 in /  0.0 mm
20:52 47.1 °F /  8.4 °C 45.1 °F /  7.3 °C 30.1 in /  1019.2 hPa WSW 3 mph /  4.8 km/h 8 mph /  12.9 km/h 93 % 0 in /  0.0 mm
20:57 47.1 °F /  8.4 °C 45.1 °F /  7.3 °C 30.1 in /  1019.2 hPa SW 2 mph /  3.2 km/h 6 mph /  9.7 km/h 93 % 0 in /  0.0 mm
21:02 47.1 °F /  8.4 °C 45 °F /  7.2 °C 30.1 in /  1019.2 hPa SW 3 mph /  4.8 km/h 6 mph /  9.7 km/h 92 % 0 in /  0.0 mm
21:12 47.3 °F /  8.5 °C 45.1 °F /  7.3 °C 30.1 in /  1019.2 hPa WSW 3 mph /  4.8 km/h 7 mph /  11.3 km/h 92 % 0 in /  0.0 mm
21:17 47.3 °F /  8.5 °C 45.1 °F /  7.3 °C 30.1 in /  1019.2 hPa West 3 mph /  4.8 km/h 7 mph /  11.3 km/h 92 % 0 in /  0.0 mm
21:27 47.1 °F /  8.4 °C 45 °F /  7.2 °C 30.1 in /  1019.5 hPa WSW 3 mph /  4.8 km/h 5 mph /  8.0 km/h 92 % 0 in /  0.0 mm
21:32 47.1 °F /  8.4 °C 44.6 °F /  7.0 °C 30.1 in /  1019.5 hPa West 2 mph /  3.2 km/h 5 mph /  8.0 km/h 91 % 0 in /  0.0 mm
21:42 47.1 °F /  8.4 °C 44.6 °F /  7.0 °C 30.1 in /  1019.9 hPa West 1 mph /  1.6 km/h 5 mph /  8.0 km/h 91 % 0 in /  0.0 mm
21:52 47.7 °F /  8.7 °C 44.2 °F /  6.8 °C 30.1 in /  1019.9 hPa West 1 mph /  1.6 km/h 7 mph /  11.3 km/h 88 % 0 in /  0.0 mm
21:57 47.7 °F /  8.7 °C 44.1 °F /  6.7 °C 30.1 in /  1019.9 hPa WNW 1 mph /  1.6 km/h 8 mph /  12.9 km/h 87 % 0 in /  0.0 mm
22:02 47.7 °F /  8.7 °C 44.1 °F /  6.7 °C 30.1 in /  1019.9 hPa WNW 1 mph /  1.6 km/h 8 mph /  12.9 km/h 87 % 0 in /  0.0 mm
22:07 47.5 °F /  8.6 °C 43.9 °F /  6.6 °C 30.1 in /  1019.9 hPa West 2 mph /  3.2 km/h 5 mph /  8.0 km/h 87 % 0 in /  0.0 mm
22:12 47.5 °F /  8.6 °C 44.1 °F /  6.7 °C 30.1 in /  1019.9 hPa WNW 1 mph /  1.6 km/h 5 mph /  8.0 km/h 88 % 0 in /  0.0 mm
22:17 47.3 °F /  8.5 °C 43.9 °F /  6.6 °C 30.1 in /  1019.9 hPa WNW 3 mph /  4.8 km/h 7 mph /  11.3 km/h 88 % 0 in /  0.0 mm
22:22 47.3 °F /  8.5 °C 44.2 °F /  6.8 °C 30.1 in /  1019.9 hPa West 3 mph /  4.8 km/h 7 mph /  11.3 km/h 89 % 0 in /  0.0 mm
22:27 47.3 °F /  8.5 °C 44.2 °F /  6.8 °C 30.1 in /  1020.2 hPa WNW 5 mph /  8.0 km/h 7 mph /  11.3 km/h 89 % 0 in /  0.0 mm
22:32 47.3 °F /  8.5 °C 43.9 °F /  6.6 °C 30.1 in /  1019.9 hPa WNW 3 mph /  4.8 km/h 8 mph /  12.9 km/h 88 % 0 in /  0.0 mm
22:37 47.3 °F /  8.5 °C 43.9 °F /  6.6 °C 30.1 in /  1019.9 hPa WNW 6 mph /  9.7 km/h 10 mph /  16.1 km/h 88 % 0 in /  0.0 mm
22:42 47.1 °F /  8.4 °C 43.7 °F /  6.5 °C 30.1 in /  1020.2 hPa West 7 mph /  11.3 km/h 12 mph /  19.3 km/h 88 % 0 in /  0.0 mm
22:47 47.1 °F /  8.4 °C 43.5 °F /  6.4 °C 30.1 in /  1020.5 hPa WNW 6 mph /  9.7 km/h 12 mph /  19.3 km/h 87 % 0 in /  0.0 mm
22:52 47.1 °F /  8.4 °C 43.5 °F /  6.4 °C 30.1 in /  1020.5 hPa WNW 7 mph /  11.3 km/h 11 mph /  17.7 km/h 87 % 0 in /  0.0 mm
23:02 47.1 °F /  8.4 °C 43.2 °F /  6.2 °C 30.1 in /  1020.5 hPa WNW 5 mph /  8.0 km/h 11 mph /  17.7 km/h 86 % 0 in /  0.0 mm
23:12 46.8 °F /  8.2 °C 42.8 °F /  6.0 °C 30.2 in /  1020.9 hPa WNW 3 mph /  4.8 km/h 11 mph /  17.7 km/h 86 % 0 in /  0.0 mm
23:17 46.6 °F /  8.1 °C 42.6 °F /  5.9 °C 30.2 in /  1020.9 hPa WNW 5 mph /  8.0 km/h 10 mph /  16.1 km/h 86 % 0 in /  0.0 mm
23:22 46.6 °F /  8.1 °C 42.6 °F /  5.9 °C 30.2 in /  1020.9 hPa West 3 mph /  4.8 km/h 10 mph /  16.1 km/h 86 % 0 in /  0.0 mm
23:27 46.6 °F /  8.1 °C 42.6 °F /  5.9 °C 30.2 in /  1020.9 hPa WNW 11 mph /  17.7 km/h 15 mph /  24.1 km/h 86 % 0 in /  0.0 mm
23:32 46.4 °F /  8.0 °C 42.1 °F /  5.6 °C 30.2 in /  1020.9 hPa West 9 mph /  14.5 km/h 15 mph /  24.1 km/h 85 % 0 in /  0.0 mm
23:37 46.4 °F /  8.0 °C 42.1 °F /  5.6 °C 30.2 in /  1020.9 hPa West 2 mph /  3.2 km/h 15 mph /  24.1 km/h 85 % 0 in /  0.0 mm
23:42 46.2 °F /  7.9 °C 42.3 °F /  5.7 °C 30.2 in /  1020.9 hPa WNW 3 mph /  4.8 km/h 11 mph /  17.7 km/h 86 % 0 in /  0.0 mm
23:47 46.2 °F /  7.9 °C 41.9 °F /  5.5 °C 30.2 in /  1020.9 hPa West 1 mph /  1.6 km/h 10 mph /  16.1 km/h 85 % 0 in /  0.0 mm
23:52 46 °F /  7.8 °C 41.7 °F /  5.4 °C 30.2 in /  1020.9 hPa WNW 2 mph /  3.2 km/h 8 mph /  12.9 km/h 85 % 0 in /  0.0 mm
23:57 46 °F /  7.8 °C 42.1 °F /  5.6 °C 30.2 in /  1021.2 hPa West 1 mph /  1.6 km/h 8 mph /  12.9 km/h 86 % 0 in /  0.0 mm
Meteo18
Compliments of Weather Underground - 4 mb

Script developed by  Jim McMurry - jmcmurry@mwt.net Adapted for the template by  Wim van der Kuil - Leuven-Template.eu

You find our weather info also at:

European Weather Network

Weather Underground

Equipment we use:

Weather-station
Davis Vue

Weather-program
Meteohub

Weather-server
Raspberry PI 2 B+

Provider
1 and 1

Davis Vue

Meteohub

Raspberry PI 2 B+

1 and 1